AirNav   Bose Proflight Series 2 Wireless viation Headset
 
 540 users online  

WI36 Dolhun Field Airport
Lake Tomahawk, Wisconsin, USA

GOING TO LAKE TOMAHAWK?


FAA INFORMATION EFFECTIVE 10 OCTOBER 2019

Location

FAA Identifier: WI36
Lat/Long: 45-49-35.8320N 089-37-12.5160W
45-49.597200N 089-37.208600W
45.8266200,-89.6201433
(estimated)
Elevation: 1625 ft. / 495 m (estimated)
Variation: 01W (1995)
From city: 2 miles NW of LAKE TOMAHAWK, WI
Time zone: UTC -5 (UTC -6 during Standard Time)
Zip code: 54539

Airport Operations

Airport use: Private use. Permission required prior to landing
Activation date: 10/1999
Control tower: no
ARTCC: MINNEAPOLIS CENTER
FSS: GREEN BAY FLIGHT SERVICE STATION
Attendance: UNATNDD
Wind indicator: yes
Segmented circle: no

Airport Communications

UNICOM: 122.7
WX AWOS-3 at ARV (8 nm NW): 121.125 (715-356-2417)
WX ASOS at RHI (13 nm SE): 126.825 (715-362-7980)
WX AWOS-3 at EGV (16 nm NE): 118.325 (715-479-1465)

Nearby radio navigation aids

VOR radial/distance  VOR name  Freq  Var
RHIr328/13.4RHINELANDER VOR/DME109.2002E

 
NDB name  Hdg/Dist  Freq  Var  ID
DOUGY098/4.623602WDO -.. ---
ARBOR VITAE145/7.522102WARV .- .-. ...-
ARSHA003/11.927203WRH .-. ....
WATERSMEET209/31.140702WRXW .-. -..- .--

Airport Services

Runway Information

Runway 18/36

Dimensions: 2700 x 75 ft. / 823 x 23 m
Surface: asphalt
RUNWAY 18  RUNWAY 36
Traffic pattern: leftleft
Displaced threshold: 120 ft.280 ft.
Markings: basic
Obstructions: 10 ft. road, 240 ft. from runway30 ft. tree, 670 ft. from runway

Airport Ownership and Management from official FAA records

Ownership: Privately-owned
Owner: DOLHUN FIELD AIRPARK OWNERS ASSN UA
7547 RUNWAY DR.
LAKE TOMAHAWK, WI 54539
Phone 715-227-3828
Manager: CHUCK DOWRICK
7547 RUNWAY DR.
LAKE TOMAHAWK, WI 54539
Phone 715-277-3828

Airport Operational Statistics

Aircraft based on the field: 2
Single engine airplanes: 2
    

Additional Remarks

ALL AIRCRAFT MONITOR 122.7 DUE TO PROXIMITY TO LAKELAND AIRPORT/NOBLE F. LEE MEMORIAL FIELD.
FOR CD CTC MINNEAPOLIS ARTCC AT 651-463-5588.

Instrument Procedures

There are no published instrument procedures at WI36.

Some nearby airports with instrument procedures:

KARV - Lakeland Airport/Noble F. Lee Memorial Field (8 nm NW)
KRHI - Rhinelander-Oneida County Airport (13 nm SE)
KEGV - Eagle River Union Airport (16 nm NE)
D25 - Manitowish Waters Airport (21 nm NW)
KTKV - Tomahawk Regional Airport (23 nm S)
 
Loc | Ops | Rwys | IFR | FBO | Links
Com | Nav | Svcs | Stats | Notes
Area around WI36 (Dolhun Field Airport)
 
Road maps at: MapQuest Bing Google
 
Aerial photo
WARNING: Photo may not be current or correct
Aerial photo of WI36 (Dolhun Field Airport)
Do you have a better or more recent aerial photo of Dolhun Field Airport that you would like to share? If so, please send us your photo.

 
Sectional chart

 
Airport distance calculator
Flying to Dolhun Field Airport? Find the distance to fly.

From to WI36

Sunrise and sunset
Times for 19-Oct-2019
 Local
(UTC-5)
 Zulu
(UTC)
Morning civil twilight06:5111:51
Sunrise07:2212:22
Sunset18:0523:05
Evening civil twilight18:3623:36

Current date and time
Zulu (UTC)  19-Oct-2019 11:40:05
Local (UTC-5)  19-Oct-2019 06:40:05
 
METAR
KARV 
7nm NW 
191115Z AUTO 17008KT 10SM SCT110 08/05 A2968 RMK AO2 T00750047
KRHI 
13nm SE 
191053Z AUTO 17006KT 10SM CLR 07/03 A2971 RMK AO2 SLP068 T00670028
KEGV 
16nm E 
191115Z AUTO 17005KT 10SM CLR 06/03 A2970 RMK AO2 T00600027
TAF
KRHI 
13nm SE 
190520Z 1906/2006 18010G17KT P6SM SCT080 BKN250 WS020/21045KT TEMPO 1908/1911 BKN080 FM191100 18007KT P6SM BKN120 WS018/22035KT FM191300 19007KT P6SM OVC060 FM191700 21006KT P6SM -SHRA OVC035 FM191800 22006KT 5SM -SHRA OVC022 FM192200 22003KT P6SM BKN035 FM200000 23003KT P6SM SCT035 FM200300 25003KT 4SM BR SCT025
NOTAMs
Click for the latest NOTAMs
NOTAMs are issued by the DoD/FAA and will open in a separate window not controlled by AirNav.

 

 
 

Would you like to see your business listed on this page?

 If your business provides an interesting product or service to pilots, flight crews, aircraft, or users of the Dolhun Field Airport, you should consider listing it here.  To start the listing process, click on the button below
 
Add a business
 

Other Pages about Dolhun Field Airport

Update a link
 
Copyright © AirNav, LLC. All rights reserved. Privacy Policy  Contact